Time;durP1;ratioP1;P1;durP2;ratioP2;P2;SDS_P1;SDS_P2;PMS_P1;PMS_P2;Temp;Humidity;BMP_temperature;BMP_pressure;BME280_temperature;BME280_humidity;BME280_pressure;Samples;Min_cycle;Max_cycle;Signal;HPM_P1;HPM_P2
2020/12/23 00:00:56;;;;;;;11.90;8.53;;;;;;;8.81;96.12;99818.09;1756626;81;27027;-43
2020/12/23 00:03:23;;;;;;;8.98;6.55;;;;;;;8.75;95.75;99828.22;1756284;81;25675;-43
2020/12/23 00:05:49;;;;;;;4.92;4.37;;;;;;;8.69;95.39;99840.22;1756210;81;25731;-44
2020/12/23 00:08:16;;;;;;;4.17;3.77;;;;;;;8.58;94.55;99828.90;1755783;81;25743;-43
2020/12/23 00:10:42;;;;;;;5.95;4.37;;;;;;;8.48;94.05;99827.80;1756659;81;26327;-42
2020/12/23 00:13:09;;;;;;;5.70;3.67;;;;;;;8.36;93.77;99836.92;1754368;80;26180;-44
2020/12/23 00:15:35;;;;;;;4.03;3.02;;;;;;;8.28;93.72;99841.16;1757597;81;25762;-46
2020/12/23 00:18:02;;;;;;;2.70;2.47;;;;;;;8.16;93.58;99832.26;1760879;81;26164;-47
2020/12/23 00:20:29;;;;;;;2.00;1.80;;;;;;;8.06;93.14;99847.30;1760721;81;25775;-46
2020/12/23 00:22:56;;;;;;;1.98;1.50;;;;;;;7.93;92.71;99856.98;1761002;81;25814;-48
2020/12/23 00:25:23;;;;;;;3.22;2.27;;;;;;;7.81;92.58;99851.32;1761004;81;26446;-44
2020/12/23 00:27:49;;;;;;;2.90;1.87;;;;;;;7.70;92.60;99868.23;1760764;81;26298;-44
2020/12/23 00:30:17;;;;;;;2.08;1.37;;;;;;;7.61;92.67;99877.56;1761080;81;26457;-56
2020/12/23 00:32:44;;;;;;;1.95;1.72;;;;;;;7.54;92.74;99879.05;1760899;81;25810;-45
2020/12/23 00:35:11;;;;;;;1.75;1.27;;;;;;;7.46;92.67;99879.20;1760682;81;25734;-44
2020/12/23 00:37:37;;;;;;;1.32;1.22;;;;;;;7.40;92.71;99883.08;1761045;81;26309;-44
2020/12/23 00:40:05;;;;;;;1.80;1.10;;;;;;;7.34;92.63;99888.28;1760907;81;25767;-45
2020/12/23 00:42:32;;;;;;;3.02;2.08;;;;;;;7.28;92.69;99885.69;1760915;81;25964;-51
2020/12/23 00:44:58;;;;;;;1.55;1.20;;;;;;;7.24;92.61;99888.73;1761021;81;26148;-44
2020/12/23 00:47:25;;;;;;;2.42;1.37;;;;;;;7.19;92.60;99889.38;1760866;81;25645;-44
2020/12/23 00:49:52;;;;;;;1.95;1.30;;;;;;;7.14;92.66;99890.81;1760852;81;25948;-44
2020/12/23 00:52:19;;;;;;;1.17;1.02;;;;;;;7.09;92.69;99901.10;1760858;81;25689;-45
2020/12/23 00:54:46;;;;;;;1.10;1.00;;;;;;;7.05;92.59;99910.31;1761009;81;25775;-44
2020/12/23 00:57:12;;;;;;;2.92;1.30;;;;;;;7.03;92.62;99907.65;1760733;81;25770;-45
2020/12/23 00:59:40;;;;;;;1.82;1.22;;;;;;;7.01;92.62;99908.50;1761023;81;25870;-44
2020/12/23 01:02:06;;;;;;;3.98;1.30;;;;;;;6.98;92.74;99906.39;1760895;81;26883;-43
2020/12/23 01:04:33;;;;;;;1.98;1.10;;;;;;;6.95;92.57;99915.86;1760679;81;25831;-42
2020/12/23 01:07:00;;;;;;;1.92;1.22;;;;;;;6.92;92.61;99918.57;1760801;81;25759;-45
2020/12/23 01:09:26;;;;;;;4.72;1.62;;;;;;;6.92;92.63;99925.84;1761017;81;25679;-42
2020/12/23 01:11:53;;;;;;;2.92;1.40;;;;;;;6.89;92.63;99915.12;1760984;81;25631;-43
2020/12/23 01:14:20;;;;;;;2.40;1.32;;;;;;;6.87;92.60;99925.92;1727102;81;25978;-43
2020/12/23 01:16:47;;;;;;;2.67;1.37;;;;;;;6.84;92.53;99925.95;1715944;82;26475;-44
2020/12/23 01:19:14;;;;;;;1.37;1.00;;;;;;;6.83;92.62;99932.44;1705934;84;25787;-42
2020/12/23 01:21:45;;;;;;;2.55;1.30;;;;;;;6.81;92.62;99932.46;1723383;81;25743;-43
2020/12/23 01:24:12;;;;;;;2.10;1.07;;;;;;;6.79;92.60;99935.44;1728773;82;25752;-44
2020/12/23 01:26:39;;;;;;;1.62;1.27;;;;;;;6.78;92.65;99942.48;1728608;82;26718;-44
2020/12/23 01:29:05;;;;;;;2.75;1.50;;;;;;;6.75;92.58;99947.87;1728825;82;25843;-43
2020/12/23 01:31:32;;;;;;;3.95;1.27;;;;;;;6.73;92.53;99948.17;1728808;82;25783;-45
2020/12/23 01:33:58;;;;;;;2.95;1.32;;;;;;;6.72;92.50;99947.11;1728523;82;25796;-51
2020/12/23 01:36:25;;;;;;;2.83;1.45;;;;;;;6.69;92.44;99947.16;1728874;82;25808;-53
2020/12/23 01:38:51;;;;;;;1.82;1.12;;;;;;;6.67;92.38;99937.78;1728687;82;27224;-48
2020/12/23 01:41:18;;;;;;;1.17;1.07;;;;;;;6.67;92.45;99943.95;1728541;82;25815;-50
2020/12/23 01:43:54;;;;;;;3.60;1.40;;;;;;;6.66;92.42;99944.27;1728755;82;25803;-51
2020/12/23 01:46:26;;;;;;;1.85;1.25;;;;;;;6.65;92.40;99950.16;1728831;82;25747;-49
2020/12/23 01:49:07;;;;;;;2.72;1.30;;;;;;;6.69;92.13;99953.88;1845726;76;35405;-51
2020/12/23 01:51:36;;;;;;;4.90;1.47;;;;;;;6.62;92.26;99944.58;1815270;78;25787;-52
2020/12/23 01:54:03;;;;;;;2.33;1.32;;;;;;;6.63;92.38;99951.55;1815325;78;25971;-54
2020/12/23 01:56:30;;;;;;;3.25;1.40;;;;;;;6.62;92.38;99949.39;1815868;78;25905;-52
2020/12/23 01:58:57;;;;;;;2.00;1.30;;;;;;;6.62;92.46;99941.33;1816487;78;25714;-52
2020/12/23 02:01:28;;;;;;;1.92;1.37;;;;;;;6.62;92.35;99939.98;1816444;78;25589;-51
2020/12/23 02:03:54;;;;;;;2.25;1.50;;;;;;;6.62;92.30;99943.23;1816466;78;25776;-50
2020/12/23 02:06:21;;;;;;;1.40;1.30;;;;;;;6.62;92.19;99944.58;1816736;78;25693;-50
2020/12/23 02:08:49;;;;;;;1.87;1.30;;;;;;;6.60;92.09;99938.14;1816481;78;25752;-51
2020/12/23 02:11:18;;;;;;;1.57;1.25;;;;;;;6.61;92.09;99940.30;1816437;78;25672;-51
2020/12/23 02:13:45;;;;;;;2.08;1.40;;;;;;;6.60;92.21;99938.70;1775918;78;26119;-52
2020/12/23 02:16:13;;;;;;;2.05;1.52;;;;;;;6.59;92.00;99937.09;1756217;81;25848;-52
2020/12/23 02:18:41;;;;;;;1.77;1.30;;;;;;;6.59;92.04;99928.50;1756015;81;25719;-50
2020/12/23 02:21:08;;;;;;;1.95;1.40;;;;;;;6.58;91.90;99931.48;1756024;81;25833;-52
2020/12/23 02:23:34;;;;;;;2.25;1.15;;;;;;;6.58;91.99;99936.84;1756209;81;26140;-52
2020/12/23 02:26:01;;;;;;;2.85;1.50;;;;;;;6.58;92.02;99940.33;1728389;81;25814;-50
2020/12/23 02:28:27;;;;;;;4.45;1.60;;;;;;;6.56;91.88;99941.72;1756239;81;25612;-52
2020/12/23 02:31:01;;;;;;;1.40;1.15;;;;;;;6.55;91.85;99948.97;1756250;81;26691;-50
2020/12/23 02:33:28;;;;;;;2.05;1.45;;;;;;;6.56;91.81;99950.58;1755858;81;26032;-52
2020/12/23 02:35:55;;;;;;;2.40;1.40;;;;;;;6.56;91.84;99955.16;1756137;81;25742;-51
2020/12/23 02:38:22;;;;;;;3.17;1.42;;;;;;;6.56;91.80;99957.84;1756076;81;25788;-48
2020/12/23 02:40:48;;;;;;;2.92;1.50;;;;;;;6.54;91.80;99958.92;1756106;81;25939;-49
2020/12/23 02:43:15;;;;;;;2.30;1.50;;;;;;;6.54;91.76;99960.27;1756160;81;25806;-53
2020/12/23 02:45:42;;;;;;;3.00;1.30;;;;;;;6.53;91.81;99952.49;1756066;81;25618;-50
2020/12/23 02:48:09;;;;;;;2.83;1.40;;;;;;;6.53;91.75;99957.87;1755843;81;25771;-51
2020/12/23 02:50:36;;;;;;;3.17;2.30;;;;;;;6.51;91.63;99944.72;1756143;81;25707;-50
2020/12/23 02:53:02;;;;;;;2.35;2.02;;;;;;;6.51;91.62;99955.47;1756091;81;25701;-49
2020/12/23 02:55:29;;;;;;;5.00;2.10;;;;;;;6.51;91.38;99953.33;1756095;81;27361;-51
2020/12/23 02:57:56;;;;;;;5.87;2.37;;;;;;;6.51;91.63;99957.36;1756033;81;25734;-52
2020/12/23 03:00:23;;;;;;;7.22;2.83;;;;;;;6.50;91.45;99956.57;1755542;81;25803;-49
2020/12/23 03:02:49;;;;;;;3.70;1.95;;;;;;;6.50;91.20;99961.95;1755233;81;25674;-51
2020/12/23 03:05:16;;;;;;;2.83;1.70;;;;;;;6.51;91.30;99967.56;1755585;81;26043;-50
2020/12/23 03:07:43;;;;;;;1.55;1.30;;;;;;;6.49;91.08;99965.71;1755585;81;26357;-47
2020/12/23 03:10:09;;;;;;;2.27;1.50;;;;;;;6.49;91.07;99975.67;1755261;81;25662;-49
2020/12/23 03:12:36;;;;;;;2.85;1.82;;;;;;;6.49;91.23;99973.77;1751337;81;25604;-50
2020/12/23 03:15:03;;;;;;;3.05;1.67;;;;;;;6.48;91.23;99972.16;1755389;81;25638;-49
2020/12/23 03:17:30;;;;;;;2.20;1.62;;;;;;;6.47;91.21;99963.86;1755506;81;25636;-47
2020/12/23 03:19:56;;;;;;;2.12;1.87;;;;;;;6.48;91.17;99967.34;1755644;81;26351;-49
2020/12/23 03:22:23;;;;;;;3.10;2.30;;;;;;;6.48;91.24;99976.74;1755396;81;25866;-51
2020/12/23 03:24:50;;;;;;;5.62;2.42;;;;;;;6.47;91.10;99979.16;1755494;81;25686;-49
2020/12/23 03:27:16;;;;;;;3.95;2.62;;;;;;;6.47;91.26;99981.84;1755434;81;25687;-50
2020/12/23 03:29:43;;;;;;;4.95;2.83;;;;;;;6.45;90.95;99975.97;1755561;81;26126;-48
2020/12/23 03:32:09;;;;;;;3.70;2.40;;;;;;;6.45;91.05;99979.48;1755257;81;26891;-51
2020/12/23 03:34:36;;;;;;;3.80;2.50;;;;;;;6.44;90.88;99979.77;1755365;81;25752;-50
2020/12/23 03:37:03;;;;;;;4.50;2.40;;;;;;;6.42;90.86;99979.23;1755541;81;26042;-51
2020/12/23 03:39:30;;;;;;;4.30;2.72;;;;;;;6.41;90.71;99974.41;1755223;81;25834;-51
2020/12/23 03:41:57;;;;;;;3.47;2.47;;;;;;;6.41;90.83;99977.65;1755643;81;25745;-50
2020/12/23 03:44:23;;;;;;;2.92;2.45;;;;;;;6.39;90.82;99984.66;1755450;81;25981;-49
2020/12/23 03:46:50;;;;;;;3.47;2.50;;;;;;;6.36;90.64;99982.53;1755395;81;25788;-47
2020/12/23 03:49:17;;;;;;;3.15;2.55;;;;;;;6.36;90.60;99977.95;1760722;81;25766;-49
2020/12/23 03:51:43;;;;;;;2.62;2.40;;;;;;;6.36;90.80;99970.45;1762009;81;25745;-50
2020/12/23 03:54:10;;;;;;;5.40;2.40;;;;;;;6.35;90.83;99987.64;1761713;81;25974;-49
2020/12/23 03:56:36;;;;;;;4.62;2.50;;;;;;;6.34;90.85;99996.80;1761979;81;25965;-50
2020/12/23 03:59:03;;;;;;;4.62;2.83;;;;;;;6.34;90.77;99998.15;1761916;81;25738;-47
2020/12/23 04:01:30;;;;;;;3.95;2.87;;;;;;;6.32;90.73;99998.43;1761972;81;25823;-47
2020/12/23 04:03:56;;;;;;;3.37;2.70;;;;;;;6.32;90.70;100008.39;1762041;81;25769;-47
2020/12/23 04:06:23;;;;;;;4.58;3.20;;;;;;;6.32;90.75;100012.42;1762130;81;25722;-50
2020/12/23 04:08:49;;;;;;;4.92;3.12;;;;;;;6.30;90.77;100011.36;1761777;81;26359;-49
2020/12/23 04:11:16;;;;;;;4.47;3.45;;;;;;;6.28;90.69;100008.16;1761798;81;25740;-49
2020/12/23 04:13:42;;;;;;;4.90;4.05;;;;;;;6.27;90.60;100024.56;1758345;79;25665;-50
2020/12/23 04:16:09;;;;;;;8.50;5.05;;;;;;;6.26;90.58;100021.61;1761829;81;26461;-51
2020/12/23 04:18:35;;;;;;;8.08;5.85;;;;;;;6.24;90.53;100017.86;1762060;81;25745;-52
2020/12/23 04:21:02;;;;;;;10.60;6.67;;;;;;;6.23;90.71;100014.94;1761912;81;25759;-49
2020/12/23 04:23:29;;;;;;;10.80;7.67;;;;;;;6.22;90.65;100015.22;1761940;81;25709;-50
2020/12/23 04:25:55;;;;;;;10.95;7.58;;;;;;;6.20;90.42;100016.03;1761879;81;25732;-51
2020/12/23 04:28:22;;;;;;;14.90;9.28;;;;;;;6.19;90.48;100017.92;1762001;81;25870;-51
2020/12/23 04:30:48;;;;;;;13.13;8.90;;;;;;;6.17;90.57;100022.23;1762009;81;25595;-50
2020/12/23 04:33:16;;;;;;;15.75;10.35;;;;;;;6.16;90.56;100025.20;1761654;81;26728;-47
2020/12/23 04:35:42;;;;;;;11.75;9.50;;;;;;;6.14;90.65;100024.14;1761990;81;25775;-49
2020/12/23 04:38:09;;;;;;;13.38;9.88;;;;;;;6.13;90.50;100032.48;1761980;81;25749;-49
2020/12/23 04:40:39;;;;;;;19.50;11.25;;;;;;;6.12;90.60;100037.06;1761855;81;25803;-49
2020/12/23 04:43:04;;;;;;;18.65;11.75;;;;;;;6.11;90.47;100036.82;1761704;81;25868;-48
2020/12/23 04:45:30;;;;;;;15.55;11.43;;;;;;;6.09;90.45;100038.17;1762018;81;26924;-50
2020/12/23 04:47:59;;;;;;;18.48;12.03;;;;;;;6.07;90.32;100038.45;1761225;81;26003;-50
2020/12/23 04:50:30;;;;;;;16.85;12.98;;;;;;;6.05;90.25;100051.38;1758413;81;25792;-49
2020/12/23 04:52:57;;;;;;;19.15;12.20;;;;;;;6.01;90.06;100055.72;1758197;81;25673;-51
2020/12/23 04:55:23;;;;;;;14.25;10.72;;;;;;;5.98;90.01;100067.02;1758423;81;25773;-48
2020/12/23 04:57:54;;;;;;;13.40;9.78;;;;;;;5.93;89.87;100081.26;1758551;81;25696;-52
2020/12/23 05:00:21;;;;;;;14.95;9.70;;;;;;;5.91;89.91;100075.93;1758467;81;25752;-51
2020/12/23 05:02:47;;;;;;;12.63;8.65;;;;;;;5.89;89.95;100083.44;1758202;81;25877;-50
2020/12/23 05:05:14;;;;;;;10.65;7.20;;;;;;;5.86;90.00;100077.31;1758461;81;25638;-50
2020/12/23 05:07:40;;;;;;;10.05;5.28;;;;;;;5.85;89.50;100079.73;1758458;81;25650;-47
2020/12/23 05:10:07;;;;;;;8.88;5.15;;;;;;;5.82;89.61;100085.11;1758322;81;26269;-50
2020/12/23 05:12:33;;;;;;;7.72;4.50;;;;;;;5.78;89.44;100077.37;1758342;81;25749;-49
2020/12/23 05:15:06;;;;;;;8.40;4.10;;;;;;;5.74;89.34;100078.48;1758233;81;25618;-51
2020/12/23 05:17:32;;;;;;;8.50;4.05;;;;;;;5.69;89.13;100083.89;1758340;81;25694;-48
2020/12/23 05:20:00;;;;;;;10.53;3.90;;;;;;;5.66;89.09;100090.36;1758536;81;25747;-52
2020/12/23 05:22:28;;;;;;;7.90;3.92;;;;;;;5.60;89.00;100090.41;1758452;81;25768;-51
2020/12/23 05:24:55;;;;;;;7.72;3.80;;;;;;;5.55;88.97;100086.42;1757190;81;25671;-53
2020/12/23 05:27:23;;;;;;;10.28;3.25;;;;;;;5.50;88.91;100078.41;1758589;81;26356;-50
2020/12/23 05:29:50;;;;;;;7.45;3.40;;;;;;;5.47;88.53;100086.22;1758599;81;25788;-51
2020/12/23 05:32:17;;;;;;;6.00;3.35;;;;;;;5.41;88.66;100092.14;1758270;81;25729;-51
2020/12/23 05:34:48;;;;;;;8.20;3.02;;;;;;;5.36;88.53;100102.91;1758504;81;26323;-53
2020/12/23 05:37:19;;;;;;;6.40;3.10;;;;;;;5.31;88.58;100099.73;1757938;81;25730;-47
2020/12/23 05:39:47;;;;;;;7.65;2.42;;;;;;;5.29;88.54;100095.17;1758351;81;25626;-48
2020/12/23 05:42:15;;;;;;;5.75;3.10;;;;;;;5.24;88.26;100096.02;1758394;81;25719;-48
2020/12/23 05:44:51;;;;;;;9.38;2.30;;;;;;;5.20;88.22;100111.05;1758421;81;25731;-48
2020/12/23 05:47:24;;;;;;;5.00;2.27;;;;;;;5.15;87.97;100108.39;1758395;81;25930;-48
2020/12/23 05:49:54;;;;;;;9.53;3.30;;;;;;;5.13;88.17;100119.16;1755205;81;28092;-48
2020/12/23 05:52:21;;;;;;;;;;;;;;;5.11;88.18;100115.92;1758015;81;25860;-52
2020/12/23 05:54:54;;;;;;;7.92;2.60;;;;;;;5.09;88.19;100119.42;1755397;81;25798;-50
2020/12/23 05:57:21;;;;;;;6.33;3.22;;;;;;;5.07;88.30;100117.02;1755527;81;25590;-51
2020/12/23 05:59:48;;;;;;;8.65;3.05;;;;;;;5.05;88.24;100119.17;1755322;81;25934;-48
2020/12/23 06:02:18;;;;;;;5.08;2.67;;;;;;;5.02;88.30;100121.89;1755425;81;25733;-49
2020/12/23 06:04:45;;;;;;;9.15;2.87;;;;;;;5.00;88.27;100132.05;1755516;81;25758;-48
2020/12/23 06:07:12;;;;;;;11.85;2.85;;;;;;;4.99;88.29;100135.84;1755381;81;25730;-50
2020/12/23 06:09:49;;;;;;;7.97;2.37;;;;;;;4.98;88.12;100133.42;1755559;81;26931;-50
2020/12/23 06:12:22;;;;;;;10.95;2.90;;;;;;;4.95;88.08;100133.42;1754126;81;26060;-48
2020/12/23 06:15:00;;;;;;;5.15;2.27;;;;;;;4.92;87.98;100142.03;1751357;81;37194;-52
2020/12/23 06:17:28;;;;;;;9.00;2.62;;;;;;;4.90;87.83;100142.03;1755218;81;25645;-52
2020/12/23 06:19:57;;;;;;;6.72;2.00;;;;;;;4.88;87.93;100153.58;1755336;81;25693;-49
2020/12/23 06:22:29;;;;;;;11.85;3.00;;;;;;;4.86;87.80;100149.83;1755394;81;25763;-48
2020/12/23 06:25:00;;;;;;;10.50;4.58;;;;;;;4.83;87.79;100143.12;1755420;81;25814;-46
2020/12/23 06:27:24;;;;;;;13.78;5.03;;;;;;;4.81;87.69;100148.50;1754889;81;25718;-49
2020/12/23 06:29:50;;;;;;;8.40;3.87;;;;;;;4.78;87.55;100160.55;1755309;81;25684;-48
2020/12/23 06:32:23;;;;;;;7.85;2.60;;;;;;;4.75;87.57;100164.32;1755332;81;25698;-54
2020/12/23 06:35:01;;;;;;;9.35;3.12;;;;;;;4.72;87.61;100164.34;1755197;81;25818;-54
2020/12/23 06:37:33;;;;;;;9.88;4.25;;;;;;;4.70;87.57;100167.84;1755084;81;26026;-52
2020/12/23 06:40:11;;;;;;;13.28;3.75;;;;;;;4.69;87.70;100162.20;1754940;81;25735;-54
2020/12/23 06:42:47;;;;;;;12.28;4.35;;;;;;;4.66;87.47;100168.90;1755159;81;25847;-51
2020/12/23 06:45:14;;;;;;;12.55;3.60;;;;;;;4.64;87.54;100172.94;1755023;81;25786;-50
2020/12/23 06:47:41;;;;;;;9.90;3.70;;;;;;;4.63;87.60;100174.83;1755160;81;25562;-47
2020/12/23 06:50:30;;;;;;;11.40;3.80;;;;;;;4.61;87.43;100178.83;1754607;81;26464;-51
2020/12/23 06:52:57;;;;;;;10.55;3.65;;;;;;;4.59;87.36;100179.10;1754796;81;25978;-50
2020/12/23 06:55:44;;;;;;;12.75;4.70;;;;;;;4.56;87.11;100180.98;1755253;81;25692;-51
2020/12/23 06:58:16;;;;;;;13.50;4.53;;;;;;;4.55;87.22;100178.59;1755180;81;25742;-47
2020/12/23 07:00:43;;;;;;;12.37;3.90;;;;;;;4.52;87.08;100177.80;1730904;81;26466;-50
2020/12/23 07:03:11;;;;;;;10.70;4.08;;;;;;;4.48;87.00;100160.13;1755116;81;25985;-50
2020/12/23 07:05:41;;;;;;;18.60;5.12;;;;;;;4.46;86.99;100166.27;1755232;81;25619;-50
2020/12/23 07:08:13;;;;;;;14.80;4.53;;;;;;;4.43;87.02;100175.66;1754689;81;25514;-50
2020/12/23 07:10:44;;;;;;;17.95;5.62;;;;;;;4.41;87.03;100173.80;1755328;81;25933;-49
2020/12/23 07:13:14;;;;;;;11.43;4.65;;;;;;;4.38;86.94;100181.02;1753807;80;25735;-47
2020/12/23 07:15:53;;;;;;;13.72;4.78;;;;;;;4.35;86.86;100186.91;1755168;81;25991;-50
2020/12/23 07:18:25;;;;;;;16.52;4.75;;;;;;;4.33;86.81;100194.97;1755332;81;25462;-46
2020/12/23 07:21:01;;;;;;;14.68;4.78;;;;;;;4.28;86.73;100199.23;1755117;81;25686;-49
2020/12/23 07:23:33;;;;;;;18.15;4.92;;;;;;;4.26;86.70;100201.93;1755063;81;25735;-49
2020/12/23 07:26:06;;;;;;;12.18;4.87;;;;;;;4.22;86.69;100190.96;1755208;81;25832;-48
2020/12/23 07:28:39;;;;;;;15.75;4.83;;;;;;;4.19;86.73;100199.52;1755057;81;25950;-50
2020/12/23 07:31:08;;;;;;;11.68;4.42;;;;;;;4.18;86.69;100208.61;1755191;81;26474;-50
2020/12/23 07:36:15;;;;;;;14.85;5.03;;;;;;;4.21;86.89;100215.32;1845872;76;34621;-46
2020/12/23 07:38:42;;;;;;;15.68;5.30;;;;;;;4.14;86.87;100213.42;1816026;78;25752;-49
2020/12/23 07:41:12;;;;;;;14.53;5.28;;;;;;;4.11;86.86;100216.91;1816228;78;25742;-50
2020/12/23 07:43:39;;;;;;;18.17;4.45;;;;;;;4.08;86.79;100223.34;1815782;78;25706;-51
2020/12/23 07:46:06;;;;;;;13.20;4.25;;;;;;;4.05;86.83;100222.52;1816096;78;25709;-48
2020/12/23 07:48:33;;;;;;;17.70;4.78;;;;;;;4.03;86.69;100228.69;1816068;78;25844;-50
2020/12/23 07:51:00;;;;;;;12.50;3.95;;;;;;;3.99;86.81;100236.99;1815975;78;26457;-49
2020/12/23 07:53:29;;;;;;;16.60;5.12;;;;;;;3.97;86.77;100235.09;1816000;78;25894;-50
2020/12/23 07:56:08;;;;;;;19.25;4.78;;;;;;;3.97;86.89;100235.09;1816180;78;32365;-50
2020/12/23 07:58:36;;;;;;;12.68;4.35;;;;;;;3.97;86.92;100233.24;1816026;78;25641;-50
2020/12/23 08:01:08;;;;;;;14.07;4.92;;;;;;;3.99;87.19;100235.11;1816090;78;25854;-50
2020/12/23 08:03:35;;;;;;;11.18;3.98;;;;;;;4.01;87.29;100236.98;1816107;78;25900;-50
2020/12/23 08:06:05;;;;;;;17.60;5.17;;;;;;;4.02;87.34;100237.78;1815891;78;25820;-49
2020/12/23 08:08:32;;;;;;;15.93;5.05;;;;;;;4.07;87.59;100239.12;1815835;78;26071;-51
2020/12/23 08:11:09;;;;;;;13.72;4.92;;;;;;;4.21;88.20;100241.55;1805422;77;25747;-50
2020/12/23 08:13:36;;;;;;;16.27;5.65;;;;;;;4.45;89.16;100247.16;1784786;78;26983;-48
2020/12/23 08:16:16;;;;;;;13.43;5.45;;;;;;;4.79;89.68;100251.95;1772419;80;25787;-51
2020/12/23 08:18:44;;;;;;;13.25;5.80;;;;;;;5.19;90.88;100242.20;1773016;80;25911;-50
2020/12/23 08:21:14;;;;;;;11.33;4.78;;;;;;;5.76;92.26;100248.08;1774655;80;25755;-49
2020/12/23 08:23:42;;;;;;;15.72;4.17;;;;;;;6.12;90.35;100247.88;1774529;80;25761;-52
2020/12/23 08:26:12;;;;;;;15.72;4.87;;;;;;;6.60;89.86;100241.04;1774552;80;25730;-53
2020/12/23 08:28:43;;;;;;;12.68;4.30;;;;;;;6.91;89.83;100250.41;1774827;80;25707;-48
2020/12/23 08:31:27;;;;;;;13.68;4.17;;;;;;;7.07;88.17;100256.41;1766654;80;26201;-50
2020/12/23 08:33:58;;;;;;;11.20;4.03;;;;;;;7.21;87.92;100259.21;1767478;80;26207;-51
2020/12/23 08:36:25;;;;;;;9.35;4.37;;;;;;;7.22;86.19;100251.93;1792941;79;25648;-48
2020/12/23 08:38:52;;;;;;;16.27;4.87;;;;;;;7.19;85.17;100249.84;1793532;79;26154;-54
2020/12/23 08:41:20;;;;;;;13.80;4.75;;;;;;;7.15;85.12;100250.14;1793731;79;25783;-49
2020/12/23 08:43:50;;;;;;;11.25;4.95;;;;;;;7.17;84.62;100247.95;1790012;79;26633;-47
2020/12/23 08:46:27;;;;;;;15.05;6.25;;;;;;;7.29;85.98;100250.52;1793280;79;26071;-51
2020/12/23 08:48:56;;;;;;;17.75;5.42;;;;;;;7.64;88.05;100250.34;1793102;79;25718;-52
2020/12/23 08:51:25;;;;;;;14.25;4.90;;;;;;;7.96;87.21;100244.22;1793003;79;25780;-50
2020/12/23 08:53:52;;;;;;;13.97;5.40;;;;;;;8.13;86.31;100247.73;1793149;79;25698;-50
2020/12/23 08:56:27;;;;;;;8.73;4.45;;;;;;;8.18;85.12;100254.39;1792937;79;26664;-51
2020/12/23 08:59:05;;;;;;;12.47;5.55;;;;;;;8.14;83.69;100252.05;1793027;79;25696;-50
2020/12/23 09:01:34;;;;;;;13.60;5.47;;;;;;;8.09;84.17;100252.12;1792920;79;25681;-53
2020/12/23 09:04:10;;;;;;;12.73;6.45;;;;;;;8.09;83.92;100254.00;1793018;79;25824;-56
2020/12/23 09:06:40;;;;;;;16.67;6.65;;;;;;;8.06;84.13;100257.30;1792945;79;25780;-55
2020/12/23 09:09:23;;;;;;;15.78;4.97;;;;;;;7.97;83.14;100255.81;1793191;79;25800;-55
2020/12/23 09:11:52;;;;;;;13.53;5.92;;;;;;;7.90;82.04;100255.36;1766492;78;26195;-55
2020/12/23 09:14:30;;;;;;;11.25;6.45;;;;;;;7.77;82.43;100253.66;1747600;81;35375;-55
2020/12/23 09:17:21;;;;;;;18.07;7.45;;;;;;;7.71;82.27;100256.16;1740693;81;25712;-56
2020/12/23 09:20:01;;;;;;;15.05;7.50;;;;;;;7.59;81.64;100258.48;1740775;82;25659;-57
2020/12/23 09:22:34;;;;;;;23.90;9.50;;;;;;;7.51;82.34;100257.25;1740813;81;25746;-55
2020/12/23 09:25:26;;;;;;;14.90;8.93;;;;;;;7.50;81.97;100257.53;1740647;82;26366;-54
2020/12/23 09:27:55;;;;;;;20.62;9.03;;;;;;;7.50;82.84;100258.88;1740002;82;26396;-55
2020/12/23 09:30:47;;;;;;;16.82;9.85;;;;;;;7.51;82.40;100256.42;1740797;82;26252;-55
2020/12/23 09:33:16;;;;;;;14.10;8.93;;;;;;;7.50;82.39;100255.64;1740643;82;26003;-55
2020/12/23 09:35:46;;;;;;;21.30;10.88;;;;;;;7.52;82.06;100252.11;1733956;82;25974;-55
2020/12/23 09:38:24;;;;;;;;;;;;;;;7.66;83.50;100248.15;1727946;82;25747;-55
2020/12/23 09:40:56;;;;;;;15.60;8.65;;;;;;;8.18;85.80;100252.26;1725419;82;26471;-55
2020/12/23 09:43:26;;;;;;;20.25;9.15;;;;;;;9.27;86.02;100251.97;1729741;80;25843;-55
2020/12/23 09:45:55;;;;;;;21.12;9.43;;;;;;;10.32;84.42;100248.85;1721329;81;26714;-56
2020/12/23 09:48:24;;;;;;;21.85;12.25;;;;;;;11.16;84.27;100255.33;1718537;82;25813;-55
2020/12/23 09:50:54;;;;;;;27.00;12.78;;;;;;;11.91;85.20;100250.70;1717869;82;25777;-54
2020/12/23 09:53:23;;;;;;;21.93;10.90;;;;;;;12.26;83.37;100258.02;1718091;83;25794;-53
2020/12/23 09:55:51;;;;;;;20.35;9.30;;;;;;;12.66;82.04;100261.30;1732224;81;32530;-51
2020/12/23 09:58:19;;;;;;;24.85;12.43;;;;;;;12.96;81.80;100257.87;1747880;81;25690;-53
2020/12/23 10:00:48;;;;;;;14.75;7.70;;;;;;;13.33;81.55;100253.56;1747930;82;26799;-51
2020/12/23 10:03:15;;;;;;;14.87;6.30;;;;;;;13.60;79.36;100248.75;1748087;81;25794;-54
2020/12/23 10:05:42;;;;;;;13.18;6.47;;;;;;;13.71;76.54;100260.05;1747921;82;25780;-54
2020/12/23 10:08:09;;;;;;;15.90;6.22;;;;;;;13.83;77.46;100260.90;1748006;82;25804;-53
2020/12/23 10:10:36;;;;;;;13.85;6.95;;;;;;;13.92;76.13;100259.47;1746367;80;25865;-51
2020/12/23 10:13:04;;;;;;;15.55;6.17;;;;;;;13.82;74.47;100263.41;1782839;80;27073;-50
2020/12/23 10:15:31;;;;;;;13.85;5.42;;;;;;;13.60;71.59;100262.34;1781568;80;25722;-50
2020/12/23 10:17:58;;;;;;;11.40;4.10;;;;;;;13.44;73.04;100256.69;1772632;80;25650;-48
2020/12/23 10:20:44;;;;;;;9.70;4.12;;;;;;;13.39;71.25;100266.39;1884746;75;35333;-53
2020/12/23 10:23:11;;;;;;;17.12;5.25;;;;;;;13.68;72.91;100260.13;1856844;77;25708;-53
2020/12/23 10:25:39;;;;;;;10.28;3.77;;;;;;;14.36;72.88;100259.09;1856711;77;26666;-54
2020/12/23 10:28:05;;;;;;;10.30;4.33;;;;;;;14.93;72.58;100256.98;1856456;77;26027;-52
2020/12/23 10:30:32;;;;;;;10.15;3.72;;;;;;;15.26;70.84;100254.72;1882721;76;25683;-55
2020/12/23 10:32:59;;;;;;;9.70;3.67;;;;;;;15.56;70.58;100261.29;1808568;79;25799;-54
2020/12/23 10:35:26;;;;;;;8.95;3.40;;;;;;;15.87;69.32;100255.22;1808378;79;25648;-53
2020/12/23 10:37:52;;;;;;;9.78;3.85;;;;;;;16.14;68.19;100261.05;1812804;79;25704;-55
2020/12/23 10:40:19;;;;;;;10.88;4.00;;;;;;;16.34;67.23;100265.27;1812926;78;25716;-56
2020/12/23 10:42:48;;;;;;;10.18;3.80;;;;;;;16.43;66.40;100263.19;1812627;79;25885;-55
2020/12/23 10:45:14;;;;;;;11.18;4.50;;;;;;;16.57;65.12;100259.46;1812783;78;25662;-52
2020/12/23 10:47:41;;;;;;;9.60;3.77;;;;;;;16.69;64.57;100257.81;1805554;78;25732;-56
2020/12/23 10:50:08;;;;;;;12.58;4.22;;;;;;;16.92;64.87;100252.55;1807296;78;26855;-56
2020/12/23 10:52:35;;;;;;;8.35;4.40;;;;;;;17.21;63.63;100258.13;1812823;78;25595;-53
2020/12/23 10:55:01;;;;;;;10.72;4.00;;;;;;;17.28;62.96;100251.48;1813667;78;26276;-54
2020/12/23 10:57:33;;;;;;;15.68;4.15;;;;;;;17.39;62.34;100253.08;1813834;79;25664;-50
2020/12/23 10:59:57;;;;;;;7.13;3.27;;;;;;;17.32;61.67;100245.51;1809396;79;25600;-55
2020/12/23 11:02:24;;;;;;;12.07;3.25;;;;;;;17.12;60.35;100243.86;1783932;79;26238;-55
2020/12/23 11:04:50;;;;;;;9.33;2.90;;;;;;;17.09;60.97;100243.98;1780189;80;25757;-54
2020/12/23 11:07:18;;;;;;;9.98;5.60;;;;;;;16.76;59.82;100241.02;1779969;79;25666;-55
2020/12/23 11:09:45;;;;;;;15.88;6.45;;;;;;;16.44;58.86;100254.63;1815840;78;25635;-55
2020/12/23 11:12:12;;;;;;;12.75;5.58;;;;;;;15.84;58.96;100261.36;1816419;78;25720;-53
2020/12/23 11:14:38;;;;;;;9.95;3.75;;;;;;;15.36;58.77;100252.66;1816573;78;27150;-53
2020/12/23 11:17:05;;;;;;;10.72;5.25;;;;;;;14.79;59.23;100248.91;1816888;78;25814;-53
2020/12/23 11:19:32;;;;;;;14.13;5.58;;;;;;;14.24;59.30;100252.26;1816257;78;25686;-54
2020/12/23 11:22:00;;;;;;;15.10;6.70;;;;;;;13.71;59.68;100245.88;1814988;79;25774;-50
2020/12/23 11:24:27;;;;;;;22.67;7.80;;;;;;;13.17;59.83;100242.98;1816680;78;25232;-54
2020/12/23 11:26:54;;;;;;;24.87;11.25;;;;;;;12.85;61.15;100238.41;1815067;79;26340;-53
2020/12/23 11:29:20;;;;;;;16.35;3.77;;;;;;;12.77;61.90;100240.05;1816231;78;25972;-53
2020/12/23 11:31:52;;;;;;;11.43;3.75;;;;;;;12.99;63.10;100233.58;1814361;79;25641;-52
2020/12/23 11:34:29;;;;;;;9.45;3.62;;;;;;;12.93;62.11;100230.02;1815731;78;25657;-52
2020/12/23 11:37:05;;;;;;;10.75;3.80;;;;;;;12.54;61.31;100229.98;1814788;78;34752;-52
2020/12/23 11:39:32;;;;;;;15.38;4.30;;;;;;;12.02;61.11;100234.94;1785399;80;25709;-51
2020/12/23 11:42:02;;;;;;;16.80;4.17;;;;;;;11.58;61.05;100225.97;1785781;80;26108;-50